sensor_id;sensor_type;location;lat;lon;timestamp;temperature;humidity
16893;DHT22;8563;52.242;9.098;2023-01-30T00:01:18;3.40;99.90
16893;DHT22;8563;52.242;9.098;2023-01-30T00:03:50;3.40;99.90
16893;DHT22;8563;52.242;9.098;2023-01-30T00:06:23;3.40;99.90
16893;DHT22;8563;52.242;9.098;2023-01-30T00:08:55;3.40;99.90
16893;DHT22;8563;52.242;9.098;2023-01-30T00:11:29;3.40;99.90
16893;DHT22;8563;52.242;9.098;2023-01-30T00:14:03;3.50;99.90
16893;DHT22;8563;52.242;9.098;2023-01-30T00:16:35;3.50;99.90
16893;DHT22;8563;52.242;9.098;2023-01-30T00:19:07;3.50;99.90
16893;DHT22;8563;52.242;9.098;2023-01-30T00:21:39;3.50;99.90
16893;DHT22;8563;52.242;9.098;2023-01-30T00:24:11;3.50;99.90
16893;DHT22;8563;52.242;9.098;2023-01-30T00:26:45;3.60;99.90
16893;DHT22;8563;52.242;9.098;2023-01-30T00:29:17;3.60;99.90
16893;DHT22;8563;52.242;9.098;2023-01-30T00:31:49;3.60;99.90
16893;DHT22;8563;52.242;9.098;2023-01-30T00:34:22;3.60;99.90
16893;DHT22;8563;52.242;9.098;2023-01-30T00:36:54;3.60;99.90
16893;DHT22;8563;52.242;9.098;2023-01-30T00:39:26;3.60;99.90
16893;DHT22;8563;52.242;9.098;2023-01-30T00:42:00;3.60;99.90
16893;DHT22;8563;52.242;9.098;2023-01-30T00:44:49;3.60;99.90
16893;DHT22;8563;52.242;9.098;2023-01-30T00:47:38;3.70;99.90
16893;DHT22;8563;52.242;9.098;2023-01-30T00:50:11;3.70;99.90
16893;DHT22;8563;52.242;9.098;2023-01-30T00:52:43;3.70;99.90
16893;DHT22;8563;52.242;9.098;2023-01-30T00:55:16;3.70;99.90
16893;DHT22;8563;52.242;9.098;2023-01-30T00:57:50;3.70;99.90
16893;DHT22;8563;52.242;9.098;2023-01-30T01:00:22;3.80;99.90
16893;DHT22;8563;52.242;9.098;2023-01-30T01:02:55;3.70;99.90
16893;DHT22;8563;52.242;9.098;2023-01-30T01:05:27;3.70;99.90
16893;DHT22;8563;52.242;9.098;2023-01-30T01:07:59;3.70;99.90
16893;DHT22;8563;52.242;9.098;2023-01-30T01:10:32;3.80;99.90
16893;DHT22;8563;52.242;9.098;2023-01-30T01:13:06;3.70;99.90
16893;DHT22;8563;52.242;9.098;2023-01-30T01:15:40;3.80;99.90
16893;DHT22;8563;52.242;9.098;2023-01-30T01:18:12;3.80;99.90
16893;DHT22;8563;52.242;9.098;2023-01-30T01:20:45;3.70;99.90
16893;DHT22;8563;52.242;9.098;2023-01-30T01:23:17;3.70;99.90
16893;DHT22;8563;52.242;9.098;2023-01-30T01:25:49;3.70;99.90
16893;DHT22;8563;52.242;9.098;2023-01-30T01:28:23;3.70;99.90
16893;DHT22;8563;52.242;9.098;2023-01-30T01:30:55;3.70;99.90
16893;DHT22;8563;52.242;9.098;2023-01-30T01:33:28;3.70;99.90
16893;DHT22;8563;52.242;9.098;2023-01-30T01:36:02;3.70;99.90
16893;DHT22;8563;52.242;9.098;2023-01-30T01:38:34;3.70;99.90
16893;DHT22;8563;52.242;9.098;2023-01-30T01:41:06;3.80;99.90
16893;DHT22;8563;52.242;9.098;2023-01-30T01:43:59;3.80;99.90
16893;DHT22;8563;52.242;9.098;2023-01-30T01:46:34;3.80;99.90
16893;DHT22;8563;52.242;9.098;2023-01-30T01:49:13;3.80;99.90
16893;DHT22;8563;52.242;9.098;2023-01-30T01:51:50;3.80;99.90
16893;DHT22;8563;52.242;9.098;2023-01-30T01:54:28;3.80;99.90
16893;DHT22;8563;52.242;9.098;2023-01-30T01:57:05;3.80;99.90
16893;DHT22;8563;52.242;9.098;2023-01-30T01:59:46;3.90;99.90
16893;DHT22;8563;52.242;9.098;2023-01-30T02:02:20;3.90;99.90
16893;DHT22;8563;52.242;9.098;2023-01-30T02:04:57;3.90;99.90
16893;DHT22;8563;52.242;9.098;2023-01-30T02:07:37;3.90;99.90
16893;DHT22;8563;52.242;9.098;2023-01-30T02:10:18;3.90;99.90
16893;DHT22;8563;52.242;9.098;2023-01-30T02:12:51;3.90;99.90
16893;DHT22;8563;52.242;9.098;2023-01-30T02:15:27;3.90;99.90
16893;DHT22;8563;52.242;9.098;2023-01-30T02:17:59;4.00;99.90
16893;DHT22;8563;52.242;9.098;2023-01-30T02:20:44;4.00;99.90
16893;DHT22;8563;52.242;9.098;2023-01-30T02:23:33;4.00;99.90
16893;DHT22;8563;52.242;9.098;2023-01-30T02:26:39;4.00;99.90
16893;DHT22;8563;52.242;9.098;2023-01-30T02:29:49;4.10;99.90
16893;DHT22;8563;52.242;9.098;2023-01-30T02:32:33;4.00;99.90
16893;DHT22;8563;52.242;9.098;2023-01-30T02:35:14;4.10;99.90
16893;DHT22;8563;52.242;9.098;2023-01-30T02:37:55;4.10;99.90
16893;DHT22;8563;52.242;9.098;2023-01-30T02:40:40;4.10;99.90
16893;DHT22;8563;52.242;9.098;2023-01-30T02:43:22;4.10;99.90
16893;DHT22;8563;52.242;9.098;2023-01-30T02:46:01;4.20;99.90
16893;DHT22;8563;52.242;9.098;2023-01-30T02:48:41;4.20;99.90
16893;DHT22;8563;52.242;9.098;2023-01-30T02:51:18;4.20;99.90
16893;DHT22;8563;52.242;9.098;2023-01-30T02:53:50;4.10;99.90
16893;DHT22;8563;52.242;9.098;2023-01-30T02:56:24;4.10;99.90
16893;DHT22;8563;52.242;9.098;2023-01-30T02:59:00;4.20;99.90
16893;DHT22;8563;52.242;9.098;2023-01-30T03:01:43;4.20;99.90
16893;DHT22;8563;52.242;9.098;2023-01-30T03:04:30;4.30;99.90
16893;DHT22;8563;52.242;9.098;2023-01-30T03:07:16;4.30;99.90
16893;DHT22;8563;52.242;9.098;2023-01-30T03:09:59;4.40;99.90
16893;DHT22;8563;52.242;9.098;2023-01-30T03:12:43;4.40;99.90
16893;DHT22;8563;52.242;9.098;2023-01-30T03:15:24;4.40;99.90
16893;DHT22;8563;52.242;9.098;2023-01-30T03:17:58;4.50;99.90
16893;DHT22;8563;52.242;9.098;2023-01-30T03:20:37;4.40;99.90
16893;DHT22;8563;52.242;9.098;2023-01-30T03:23:10;4.40;99.90
16893;DHT22;8563;52.242;9.098;2023-01-30T03:25:45;4.40;99.90
16893;DHT22;8563;52.242;9.098;2023-01-30T03:28:19;4.40;99.90
16893;DHT22;8563;52.242;9.098;2023-01-30T03:30:53;4.30;99.90
16893;DHT22;8563;52.242;9.098;2023-01-30T03:33:25;4.40;99.90
16893;DHT22;8563;52.242;9.098;2023-01-30T03:35:58;4.40;99.90
16893;DHT22;8563;52.242;9.098;2023-01-30T03:38:31;4.40;99.90
16893;DHT22;8563;52.242;9.098;2023-01-30T03:41:05;4.40;99.90
16893;DHT22;8563;52.242;9.098;2023-01-30T03:43:38;4.50;99.90
16893;DHT22;8563;52.242;9.098;2023-01-30T03:46:10;4.50;99.90
16893;DHT22;8563;52.242;9.098;2023-01-30T03:48:43;4.50;99.90
16893;DHT22;8563;52.242;9.098;2023-01-30T03:51:18;4.50;99.90
16893;DHT22;8563;52.242;9.098;2023-01-30T03:53:50;4.50;99.90
16893;DHT22;8563;52.242;9.098;2023-01-30T03:56:23;4.50;99.90
16893;DHT22;8563;52.242;9.098;2023-01-30T03:58:55;4.50;99.90
16893;DHT22;8563;52.242;9.098;2023-01-30T04:01:36;4.50;99.90
16893;DHT22;8563;52.242;9.098;2023-01-30T04:04:09;4.50;99.90
16893;DHT22;8563;52.242;9.098;2023-01-30T04:06:42;4.60;99.90
16893;DHT22;8563;52.242;9.098;2023-01-30T04:09:15;4.60;99.90
16893;DHT22;8563;52.242;9.098;2023-01-30T04:11:50;4.60;99.90
16893;DHT22;8563;52.242;9.098;2023-01-30T04:14:23;4.70;99.90
16893;DHT22;8563;52.242;9.098;2023-01-30T04:17:26;4.70;99.90
16893;DHT22;8563;52.242;9.098;2023-01-30T04:20:21;4.70;99.90
16893;DHT22;8563;52.242;9.098;2023-01-30T04:22:58;4.70;99.90
16893;DHT22;8563;52.242;9.098;2023-01-30T04:25:31;4.70;99.90
16893;DHT22;8563;52.242;9.098;2023-01-30T04:28:04;4.70;99.90
16893;DHT22;8563;52.242;9.098;2023-01-30T04:30:40;4.80;99.90
16893;DHT22;8563;52.242;9.098;2023-01-30T04:33:31;4.80;99.90
16893;DHT22;8563;52.242;9.098;2023-01-30T04:36:08;4.70;99.90
16893;DHT22;8563;52.242;9.098;2023-01-30T04:38:42;4.80;99.90
16893;DHT22;8563;52.242;9.098;2023-01-30T04:41:14;4.80;99.90
16893;DHT22;8563;52.242;9.098;2023-01-30T04:43:48;4.90;99.90
16893;DHT22;8563;52.242;9.098;2023-01-30T04:46:38;4.80;99.90
16893;DHT22;8563;52.242;9.098;2023-01-30T04:49:10;4.90;99.90
16893;DHT22;8563;52.242;9.098;2023-01-30T04:51:43;4.90;99.90
16893;DHT22;8563;52.242;9.098;2023-01-30T04:54:16;4.90;99.90
16893;DHT22;8563;52.242;9.098;2023-01-30T04:56:48;4.90;99.90
16893;DHT22;8563;52.242;9.098;2023-01-30T04:59:21;4.90;99.90
16893;DHT22;8563;52.242;9.098;2023-01-30T05:01:54;5.00;99.90
16893;DHT22;8563;52.242;9.098;2023-01-30T05:04:26;5.00;99.90
16893;DHT22;8563;52.242;9.098;2023-01-30T05:06:58;5.00;99.90
16893;DHT22;8563;52.242;9.098;2023-01-30T05:09:32;5.00;99.90
16893;DHT22;8563;52.242;9.098;2023-01-30T05:12:04;5.10;99.90
16893;DHT22;8563;52.242;9.098;2023-01-30T05:14:36;5.00;99.90
16893;DHT22;8563;52.242;9.098;2023-01-30T05:17:11;5.10;99.90
16893;DHT22;8563;52.242;9.098;2023-01-30T05:19:43;5.10;99.90
16893;DHT22;8563;52.242;9.098;2023-01-30T05:22:15;5.10;99.90
16893;DHT22;8563;52.242;9.098;2023-01-30T05:24:48;5.20;99.90
16893;DHT22;8563;52.242;9.098;2023-01-30T05:27:21;5.20;99.90
16893;DHT22;8563;52.242;9.098;2023-01-30T05:29:53;5.20;99.90
16893;DHT22;8563;52.242;9.098;2023-01-30T05:32:25;5.20;99.90
16893;DHT22;8563;52.242;9.098;2023-01-30T05:35:00;5.20;99.90
16893;DHT22;8563;52.242;9.098;2023-01-30T05:37:32;5.30;99.90
16893;DHT22;8563;52.242;9.098;2023-01-30T05:40:07;5.40;99.90
16893;DHT22;8563;52.242;9.098;2023-01-30T05:42:40;5.40;99.90
16893;DHT22;8563;52.242;9.098;2023-01-30T05:45:12;5.50;99.90
16893;DHT22;8563;52.242;9.098;2023-01-30T05:47:44;5.50;99.90
16893;DHT22;8563;52.242;9.098;2023-01-30T05:50:21;5.50;99.90
16893;DHT22;8563;52.242;9.098;2023-01-30T05:52:53;5.60;99.90
16893;DHT22;8563;52.242;9.098;2023-01-30T05:55:26;5.70;99.90
16893;DHT22;8563;52.242;9.098;2023-01-30T05:57:58;5.70;99.90
16893;DHT22;8563;52.242;9.098;2023-01-30T06:00:30;5.80;99.90
16893;DHT22;8563;52.242;9.098;2023-01-30T06:03:03;5.80;99.90
16893;DHT22;8563;52.242;9.098;2023-01-30T06:05:36;5.80;99.90
16893;DHT22;8563;52.242;9.098;2023-01-30T06:08:09;5.80;99.90
16893;DHT22;8563;52.242;9.098;2023-01-30T06:10:42;5.80;99.90
16893;DHT22;8563;52.242;9.098;2023-01-30T06:13:15;5.80;99.90
16893;DHT22;8563;52.242;9.098;2023-01-30T06:15:47;5.70;99.90
16893;DHT22;8563;52.242;9.098;2023-01-30T06:18:19;5.70;99.90
16893;DHT22;8563;52.242;9.098;2023-01-30T06:20:52;5.80;99.90
16893;DHT22;8563;52.242;9.098;2023-01-30T06:23:25;5.80;99.90
16893;DHT22;8563;52.242;9.098;2023-01-30T06:25:58;5.80;99.90
16893;DHT22;8563;52.242;9.098;2023-01-30T06:28:31;5.80;99.90
16893;DHT22;8563;52.242;9.098;2023-01-30T06:31:05;5.80;99.90
16893;DHT22;8563;52.242;9.098;2023-01-30T06:33:37;5.90;99.90
16893;DHT22;8563;52.242;9.098;2023-01-30T06:36:09;5.90;99.90
16893;DHT22;8563;52.242;9.098;2023-01-30T06:38:41;5.90;99.90
16893;DHT22;8563;52.242;9.098;2023-01-30T06:41:15;5.90;99.90
16893;DHT22;8563;52.242;9.098;2023-01-30T06:43:47;5.90;99.90
16893;DHT22;8563;52.242;9.098;2023-01-30T06:46:19;5.90;99.90
16893;DHT22;8563;52.242;9.098;2023-01-30T06:48:51;5.80;99.90
16893;DHT22;8563;52.242;9.098;2023-01-30T06:51:24;5.80;99.90
16893;DHT22;8563;52.242;9.098;2023-01-30T06:53:57;5.70;99.90
16893;DHT22;8563;52.242;9.098;2023-01-30T06:56:30;5.70;99.90
16893;DHT22;8563;52.242;9.098;2023-01-30T06:59:03;5.70;99.90
16893;DHT22;8563;52.242;9.098;2023-01-30T07:01:35;5.70;99.90
16893;DHT22;8563;52.242;9.098;2023-01-30T07:04:08;5.60;99.90
16893;DHT22;8563;52.242;9.098;2023-01-30T07:06:40;5.60;99.90
16893;DHT22;8563;52.242;9.098;2023-01-30T07:09:12;5.50;99.90
16893;DHT22;8563;52.242;9.098;2023-01-30T07:11:46;5.50;99.90
16893;DHT22;8563;52.242;9.098;2023-01-30T07:14:20;5.40;99.90
16893;DHT22;8563;52.242;9.098;2023-01-30T07:16:52;5.40;99.90
16893;DHT22;8563;52.242;9.098;2023-01-30T07:19:24;5.40;99.90
16893;DHT22;8563;52.242;9.098;2023-01-30T07:21:56;5.40;99.90
16893;DHT22;8563;52.242;9.098;2023-01-30T07:24:28;5.50;99.90
16893;DHT22;8563;52.242;9.098;2023-01-30T07:27:02;5.60;99.90
16893;DHT22;8563;52.242;9.098;2023-01-30T07:29:34;5.60;99.90
16893;DHT22;8563;52.242;9.098;2023-01-30T07:32:12;5.50;99.90
16893;DHT22;8563;52.242;9.098;2023-01-30T07:34:45;5.50;99.90
16893;DHT22;8563;52.242;9.098;2023-01-30T07:37:18;5.50;99.90
16893;DHT22;8563;52.242;9.098;2023-01-30T07:39:50;5.60;99.90
16893;DHT22;8563;52.242;9.098;2023-01-30T07:42:24;5.70;99.90
16893;DHT22;8563;52.242;9.098;2023-01-30T07:44:56;5.70;99.90
16893;DHT22;8563;52.242;9.098;2023-01-30T07:47:29;5.80;99.90
16893;DHT22;8563;52.242;9.098;2023-01-30T07:50:01;5.80;99.90
16893;DHT22;8563;52.242;9.098;2023-01-30T07:52:33;6.00;99.90
16893;DHT22;8563;52.242;9.098;2023-01-30T07:55:06;6.00;99.90
16893;DHT22;8563;52.242;9.098;2023-01-30T07:57:39;6.00;99.90
16893;DHT22;8563;52.242;9.098;2023-01-30T08:00:13;6.10;99.90
16893;DHT22;8563;52.242;9.098;2023-01-30T08:02:46;6.10;99.90
16893;DHT22;8563;52.242;9.098;2023-01-30T08:05:18;6.10;99.90
16893;DHT22;8563;52.242;9.098;2023-01-30T08:07:50;6.10;99.90
16893;DHT22;8563;52.242;9.098;2023-01-30T08:10:23;6.10;99.90
16893;DHT22;8563;52.242;9.098;2023-01-30T08:12:56;6.10;99.90
16893;DHT22;8563;52.242;9.098;2023-01-30T08:15:28;6.10;99.90
16893;DHT22;8563;52.242;9.098;2023-01-30T08:18:03;6.20;99.90
16893;DHT22;8563;52.242;9.098;2023-01-30T08:20:36;6.20;99.90
16893;DHT22;8563;52.242;9.098;2023-01-30T08:23:09;6.20;99.90
16893;DHT22;8563;52.242;9.098;2023-01-30T08:25:41;6.30;99.90
16893;DHT22;8563;52.242;9.098;2023-01-30T08:28:15;6.30;99.90
16893;DHT22;8563;52.242;9.098;2023-01-30T08:30:47;6.30;99.90
16893;DHT22;8563;52.242;9.098;2023-01-30T08:33:22;6.40;99.90
16893;DHT22;8563;52.242;9.098;2023-01-30T08:35:55;6.30;99.90
16893;DHT22;8563;52.242;9.098;2023-01-30T08:38:27;6.30;99.90
16893;DHT22;8563;52.242;9.098;2023-01-30T08:40:59;6.40;99.90
16893;DHT22;8563;52.242;9.098;2023-01-30T08:43:33;6.40;99.90
16893;DHT22;8563;52.242;9.098;2023-01-30T08:46:05;6.50;99.90
16893;DHT22;8563;52.242;9.098;2023-01-30T08:48:37;6.50;99.90
16893;DHT22;8563;52.242;9.098;2023-01-30T08:51:11;6.60;99.90
16893;DHT22;8563;52.242;9.098;2023-01-30T08:53:43;6.60;99.90
16893;DHT22;8563;52.242;9.098;2023-01-30T08:56:15;6.50;99.90
16893;DHT22;8563;52.242;9.098;2023-01-30T08:58:48;6.50;99.90
16893;DHT22;8563;52.242;9.098;2023-01-30T09:01:21;6.60;99.90
16893;DHT22;8563;52.242;9.098;2023-01-30T09:03:53;6.50;99.90
16893;DHT22;8563;52.242;9.098;2023-01-30T09:06:25;6.50;99.90
16893;DHT22;8563;52.242;9.098;2023-01-30T09:08:58;6.50;99.90
16893;DHT22;8563;52.242;9.098;2023-01-30T09:11:30;6.50;99.90
16893;DHT22;8563;52.242;9.098;2023-01-30T09:14:04;6.50;99.90
16893;DHT22;8563;52.242;9.098;2023-01-30T09:16:36;6.50;99.90
16893;DHT22;8563;52.242;9.098;2023-01-30T09:19:08;6.50;99.90
16893;DHT22;8563;52.242;9.098;2023-01-30T09:21:40;6.60;99.90
16893;DHT22;8563;52.242;9.098;2023-01-30T09:24:13;6.60;99.90
16893;DHT22;8563;52.242;9.098;2023-01-30T09:26:46;6.60;99.90
16893;DHT22;8563;52.242;9.098;2023-01-30T09:29:19;6.60;99.90
16893;DHT22;8563;52.242;9.098;2023-01-30T09:31:53;6.70;99.90
16893;DHT22;8563;52.242;9.098;2023-01-30T09:34:26;6.70;99.90
16893;DHT22;8563;52.242;9.098;2023-01-30T09:36:59;6.70;99.90
16893;DHT22;8563;52.242;9.098;2023-01-30T09:39:32;6.70;99.90
16893;DHT22;8563;52.242;9.098;2023-01-30T09:45:15;6.80;99.90
16893;DHT22;8563;52.242;9.098;2023-01-30T09:48:00;6.80;99.90
16893;DHT22;8563;52.242;9.098;2023-01-30T09:50:50;6.80;99.90
16893;DHT22;8563;52.242;9.098;2023-01-30T09:53:32;6.90;99.90
16893;DHT22;8563;52.242;9.098;2023-01-30T09:56:05;6.90;99.90
16893;DHT22;8563;52.242;9.098;2023-01-30T09:58:43;6.90;99.90
16893;DHT22;8563;52.242;9.098;2023-01-30T10:01:24;7.00;99.90
16893;DHT22;8563;52.242;9.098;2023-01-30T10:04:04;7.10;99.90
16893;DHT22;8563;52.242;9.098;2023-01-30T10:06:48;7.10;99.90
16893;DHT22;8563;52.242;9.098;2023-01-30T10:09:28;7.10;99.90
16893;DHT22;8563;52.242;9.098;2023-01-30T10:12:14;7.10;99.90
16893;DHT22;8563;52.242;9.098;2023-01-30T10:15:03;7.00;99.90
16893;DHT22;8563;52.242;9.098;2023-01-30T10:17:52;7.10;99.90
16893;DHT22;8563;52.242;9.098;2023-01-30T10:20:34;7.00;99.90
16893;DHT22;8563;52.242;9.098;2023-01-30T10:26:08;7.00;99.90
16893;DHT22;8563;52.242;9.098;2023-01-30T10:28:50;7.00;99.90
16893;DHT22;8563;52.242;9.098;2023-01-30T10:31:25;7.00;99.90
16893;DHT22;8563;52.242;9.098;2023-01-30T10:34:02;7.10;99.90
16893;DHT22;8563;52.242;9.098;2023-01-30T10:36:40;7.10;99.90
16893;DHT22;8563;52.242;9.098;2023-01-30T10:39:21;7.10;99.90
16893;DHT22;8563;52.242;9.098;2023-01-30T10:42:02;7.00;99.90
16893;DHT22;8563;52.242;9.098;2023-01-30T10:44:37;6.70;99.90
16893;DHT22;8563;52.242;9.098;2023-01-30T10:47:43;6.50;99.90
16893;DHT22;8563;52.242;9.098;2023-01-30T10:50:22;6.40;99.90
16893;DHT22;8563;52.242;9.098;2023-01-30T10:53:01;6.40;99.90
16893;DHT22;8563;52.242;9.098;2023-01-30T10:55:40;6.40;99.90
16893;DHT22;8563;52.242;9.098;2023-01-30T10:58:18;6.50;99.90
16893;DHT22;8563;52.242;9.098;2023-01-30T11:00:59;6.60;99.90
16893;DHT22;8563;52.242;9.098;2023-01-30T11:03:36;6.60;99.90
16893;DHT22;8563;52.242;9.098;2023-01-30T11:06:13;6.70;99.90
16893;DHT22;8563;52.242;9.098;2023-01-30T11:08:47;6.70;99.90
16893;DHT22;8563;52.242;9.098;2023-01-30T11:11:23;6.80;99.90
16893;DHT22;8563;52.242;9.098;2023-01-30T11:14:01;6.90;99.90
16893;DHT22;8563;52.242;9.098;2023-01-30T11:16:42;7.00;99.90
16893;DHT22;8563;52.242;9.098;2023-01-30T11:19:16;7.10;99.90
16893;DHT22;8563;52.242;9.098;2023-01-30T11:21:52;7.10;99.90
16893;DHT22;8563;52.242;9.098;2023-01-30T11:24:29;7.20;99.90
16893;DHT22;8563;52.242;9.098;2023-01-30T11:27:09;7.10;99.90
16893;DHT22;8563;52.242;9.098;2023-01-30T11:29:41;7.10;99.90
16893;DHT22;8563;52.242;9.098;2023-01-30T11:32:21;7.20;99.90
16893;DHT22;8563;52.242;9.098;2023-01-30T11:35:02;7.10;99.90
16893;DHT22;8563;52.242;9.098;2023-01-30T11:37:37;7.20;99.90
16893;DHT22;8563;52.242;9.098;2023-01-30T11:40:21;7.20;99.90
16893;DHT22;8563;52.242;9.098;2023-01-30T11:43:00;7.30;99.90
16893;DHT22;8563;52.242;9.098;2023-01-30T11:45:35;7.30;99.90
16893;DHT22;8563;52.242;9.098;2023-01-30T11:48:15;7.40;99.90
16893;DHT22;8563;52.242;9.098;2023-01-30T11:50:54;7.30;99.90
16893;DHT22;8563;52.242;9.098;2023-01-30T11:53:33;7.40;99.90
16893;DHT22;8563;52.242;9.098;2023-01-30T11:56:13;7.40;99.90
16893;DHT22;8563;52.242;9.098;2023-01-30T11:58:53;7.30;99.90
16893;DHT22;8563;52.242;9.098;2023-01-30T12:01:30;7.30;99.90
16893;DHT22;8563;52.242;9.098;2023-01-30T12:04:06;7.20;99.90
16893;DHT22;8563;52.242;9.098;2023-01-30T12:06:40;7.20;99.90
16893;DHT22;8563;52.242;9.098;2023-01-30T12:09:30;7.30;99.90
16893;DHT22;8563;52.242;9.098;2023-01-30T12:12:26;7.40;99.90
16893;DHT22;8563;52.242;9.098;2023-01-30T12:15:13;7.30;99.90
16893;DHT22;8563;52.242;9.098;2023-01-30T12:17:53;7.40;99.90
16893;DHT22;8563;52.242;9.098;2023-01-30T12:20:38;7.70;99.90
16893;DHT22;8563;52.242;9.098;2023-01-30T12:23:16;7.80;99.90
16893;DHT22;8563;52.242;9.098;2023-01-30T12:25:57;7.80;99.90
16893;DHT22;8563;52.242;9.098;2023-01-30T12:28:34;7.70;99.90
16893;DHT22;8563;52.242;9.098;2023-01-30T12:31:12;8.00;99.90
16893;DHT22;8563;52.242;9.098;2023-01-30T12:33:45;8.00;99.90
16893;DHT22;8563;52.242;9.098;2023-01-30T12:36:26;8.10;99.90
16893;DHT22;8563;52.242;9.098;2023-01-30T12:39:13;8.20;99.90
16893;DHT22;8563;52.242;9.098;2023-01-30T12:42:07;8.00;99.90
16893;DHT22;8563;52.242;9.098;2023-01-30T12:44:56;7.70;99.90
16893;DHT22;8563;52.242;9.098;2023-01-30T12:50:36;7.40;99.90
16893;DHT22;8563;52.242;9.098;2023-01-30T12:53:25;7.40;99.90
16893;DHT22;8563;52.242;9.098;2023-01-30T12:56:17;7.30;99.90
16893;DHT22;8563;52.242;9.098;2023-01-30T12:58:58;7.30;99.90
16893;DHT22;8563;52.242;9.098;2023-01-30T13:01:41;7.30;99.90
16893;DHT22;8563;52.242;9.098;2023-01-30T13:04:21;7.30;99.90
16893;DHT22;8563;52.242;9.098;2023-01-30T13:07:02;7.20;99.90
16893;DHT22;8563;52.242;9.098;2023-01-30T13:09:48;7.10;99.90
16893;DHT22;8563;52.242;9.098;2023-01-30T13:12:26;7.10;99.90
16893;DHT22;8563;52.242;9.098;2023-01-30T13:15:08;7.00;99.90
16893;DHT22;8563;52.242;9.098;2023-01-30T13:17:57;7.00;99.90
16893;DHT22;8563;52.242;9.098;2023-01-30T13:20:51;7.10;99.90
16893;DHT22;8563;52.242;9.098;2023-01-30T13:23:32;7.30;99.90
16893;DHT22;8563;52.242;9.098;2023-01-30T13:26:08;7.40;99.90
16893;DHT22;8563;52.242;9.098;2023-01-30T13:28:44;7.40;99.90
16893;DHT22;8563;52.242;9.098;2023-01-30T13:31:20;7.40;99.90
16893;DHT22;8563;52.242;9.098;2023-01-30T13:34:03;7.40;99.90
16893;DHT22;8563;52.242;9.098;2023-01-30T13:36:40;7.40;99.90
16893;DHT22;8563;52.242;9.098;2023-01-30T13:39:17;7.40;99.90
16893;DHT22;8563;52.242;9.098;2023-01-30T13:41:53;7.30;99.90
16893;DHT22;8563;52.242;9.098;2023-01-30T13:44:28;7.20;99.90
16893;DHT22;8563;52.242;9.098;2023-01-30T13:47:22;7.10;99.90
16893;DHT22;8563;52.242;9.098;2023-01-30T13:50:18;7.20;99.90
16893;DHT22;8563;52.242;9.098;2023-01-30T13:52:56;7.10;99.90
16893;DHT22;8563;52.242;9.098;2023-01-30T13:55:37;7.10;99.90
16893;DHT22;8563;52.242;9.098;2023-01-30T13:58:30;7.10;99.90
16893;DHT22;8563;52.242;9.098;2023-01-30T14:01:05;7.20;99.90
16893;DHT22;8563;52.242;9.098;2023-01-30T14:03:39;7.20;99.90
16893;DHT22;8563;52.242;9.098;2023-01-30T14:06:37;7.20;99.90
16893;DHT22;8563;52.242;9.098;2023-01-30T14:09:18;7.30;99.90
16893;DHT22;8563;52.242;9.098;2023-01-30T14:11:56;7.30;99.90
16893;DHT22;8563;52.242;9.098;2023-01-30T14:14:30;7.40;99.90
16893;DHT22;8563;52.242;9.098;2023-01-30T14:17:09;7.40;99.90
16893;DHT22;8563;52.242;9.098;2023-01-30T14:19:49;7.40;99.90
16893;DHT22;8563;52.242;9.098;2023-01-30T14:22:30;7.50;99.90
16893;DHT22;8563;52.242;9.098;2023-01-30T14:25:33;7.60;99.90
16893;DHT22;8563;52.242;9.098;2023-01-30T14:28:42;7.50;99.90
16893;DHT22;8563;52.242;9.098;2023-01-30T14:34:40;7.40;99.90
16893;DHT22;8563;52.242;9.098;2023-01-30T14:37:51;7.40;99.90
16893;DHT22;8563;52.242;9.098;2023-01-30T14:40:45;7.40;99.90
16893;DHT22;8563;52.242;9.098;2023-01-30T14:43:36;7.40;99.90
16893;DHT22;8563;52.242;9.098;2023-01-30T14:46:42;7.40;99.90
16893;DHT22;8563;52.242;9.098;2023-01-30T14:49:30;7.40;99.90
16893;DHT22;8563;52.242;9.098;2023-01-30T14:52:04;7.50;99.90
16893;DHT22;8563;52.242;9.098;2023-01-30T14:54:47;7.40;99.90
16893;DHT22;8563;52.242;9.098;2023-01-30T14:57:25;7.40;99.90
16893;DHT22;8563;52.242;9.098;2023-01-30T15:00:06;7.40;99.90
16893;DHT22;8563;52.242;9.098;2023-01-30T15:02:49;7.40;99.90
16893;DHT22;8563;52.242;9.098;2023-01-30T15:05:27;7.40;99.90
16893;DHT22;8563;52.242;9.098;2023-01-30T15:08:05;7.40;99.90
16893;DHT22;8563;52.242;9.098;2023-01-30T15:11:09;7.40;99.90
16893;DHT22;8563;52.242;9.098;2023-01-30T15:13:54;7.40;99.90
16893;DHT22;8563;52.242;9.098;2023-01-30T15:16:52;7.30;99.90
16893;DHT22;8563;52.242;9.098;2023-01-30T15:19:46;7.30;99.90
16893;DHT22;8563;52.242;9.098;2023-01-30T15:22:26;7.30;99.90
16893;DHT22;8563;52.242;9.098;2023-01-30T15:28:19;7.20;99.90
16893;DHT22;8563;52.242;9.098;2023-01-30T15:31:07;7.20;99.90
16893;DHT22;8563;52.242;9.098;2023-01-30T15:33:45;7.20;99.90
16893;DHT22;8563;52.242;9.098;2023-01-30T15:36:25;7.20;99.90
16893;DHT22;8563;52.242;9.098;2023-01-30T15:38:59;7.10;99.90
16893;DHT22;8563;52.242;9.098;2023-01-30T15:41:36;7.10;99.90
16893;DHT22;8563;52.242;9.098;2023-01-30T15:44:38;7.00;99.90
16893;DHT22;8563;52.242;9.098;2023-01-30T15:47:35;7.00;99.90
16893;DHT22;8563;52.242;9.098;2023-01-30T15:50:13;6.90;99.90
16893;DHT22;8563;52.242;9.098;2023-01-30T15:52:47;6.90;99.90
16893;DHT22;8563;52.242;9.098;2023-01-30T15:55:23;6.80;99.90
16893;DHT22;8563;52.242;9.098;2023-01-30T15:57:59;6.80;99.90
16893;DHT22;8563;52.242;9.098;2023-01-30T16:00:36;6.70;99.90
16893;DHT22;8563;52.242;9.098;2023-01-30T16:03:11;6.60;99.90
16893;DHT22;8563;52.242;9.098;2023-01-30T16:05:50;6.60;99.90
16893;DHT22;8563;52.242;9.098;2023-01-30T16:08:25;6.50;99.90
16893;DHT22;8563;52.242;9.098;2023-01-30T16:10:57;6.50;99.90
16893;DHT22;8563;52.242;9.098;2023-01-30T16:13:30;6.50;99.90
16893;DHT22;8563;52.242;9.098;2023-01-30T16:16:06;6.50;99.90
16893;DHT22;8563;52.242;9.098;2023-01-30T16:18:45;6.50;99.90
16893;DHT22;8563;52.242;9.098;2023-01-30T16:21:22;6.50;99.90
16893;DHT22;8563;52.242;9.098;2023-01-30T16:23:58;6.50;99.90
16893;DHT22;8563;52.242;9.098;2023-01-30T16:26:33;6.40;99.90
16893;DHT22;8563;52.242;9.098;2023-01-30T16:29:07;6.40;99.90
16893;DHT22;8563;52.242;9.098;2023-01-30T16:31:46;6.40;99.90
16893;DHT22;8563;52.242;9.098;2023-01-30T16:34:30;6.40;99.90
16893;DHT22;8563;52.242;9.098;2023-01-30T16:37:05;6.40;99.90
16893;DHT22;8563;52.242;9.098;2023-01-30T16:39:38;6.40;99.90
16893;DHT22;8563;52.242;9.098;2023-01-30T16:42:22;6.40;99.90
16893;DHT22;8563;52.242;9.098;2023-01-30T16:45:09;6.40;99.90
16893;DHT22;8563;52.242;9.098;2023-01-30T16:47:52;6.30;99.90
16893;DHT22;8563;52.242;9.098;2023-01-30T16:50:24;6.40;99.90
16893;DHT22;8563;52.242;9.098;2023-01-30T16:52:57;6.40;99.90
16893;DHT22;8563;52.242;9.098;2023-01-30T16:55:29;6.30;99.90
16893;DHT22;8563;52.242;9.098;2023-01-30T16:58:03;6.30;99.90
16893;DHT22;8563;52.242;9.098;2023-01-30T17:00:37;6.30;99.90
16893;DHT22;8563;52.242;9.098;2023-01-30T17:03:21;6.30;99.90
16893;DHT22;8563;52.242;9.098;2023-01-30T17:05:55;6.20;99.90
16893;DHT22;8563;52.242;9.098;2023-01-30T17:08:45;6.30;99.90
16893;DHT22;8563;52.242;9.098;2023-01-30T17:11:33;6.30;99.90
16893;DHT22;8563;52.242;9.098;2023-01-30T17:14:20;6.30;99.90
16893;DHT22;8563;52.242;9.098;2023-01-30T17:17:00;6.40;99.90
16893;DHT22;8563;52.242;9.098;2023-01-30T17:19:35;6.40;99.90
16893;DHT22;8563;52.242;9.098;2023-01-30T17:22:14;6.40;99.90
16893;DHT22;8563;52.242;9.098;2023-01-30T17:24:49;6.40;99.90